sensor_id;sensor_type;location;lat;lon;timestamp;pressure;altitude;pressure_sealevel;temperature;humidity
72558;BME280;60583;50.094;8.748;2022-07-03T00:01:15;100629.63;;;19.30;59.92
72558;BME280;60583;50.094;8.748;2022-07-03T00:03:41;100632.06;;;19.31;59.84
72558;BME280;60583;50.094;8.748;2022-07-03T00:06:06;100626.84;;;19.25;59.93
72558;BME280;60583;50.094;8.748;2022-07-03T00:08:31;100628.25;;;19.27;60.28
72558;BME280;60583;50.094;8.748;2022-07-03T00:10:57;100638.50;;;19.25;60.15
72558;BME280;60583;50.094;8.748;2022-07-03T00:13:22;100634.56;;;19.33;59.86
72558;BME280;60583;50.094;8.748;2022-07-03T00:15:47;100639.31;;;19.26;60.11
72558;BME280;60583;50.094;8.748;2022-07-03T00:18:13;100631.16;;;19.21;60.20
72558;BME280;60583;50.094;8.748;2022-07-03T00:20:41;100633.78;;;19.16;60.82
72558;BME280;60583;50.094;8.748;2022-07-03T00:23:14;100634.75;;;19.09;60.75
72558;BME280;60583;50.094;8.748;2022-07-03T00:25:41;100632.81;;;19.05;60.74
72558;BME280;60583;50.094;8.748;2022-07-03T00:28:07;100627.06;;;19.01;60.92
72558;BME280;60583;50.094;8.748;2022-07-03T00:30:34;100630.31;;;19.03;60.83
72558;BME280;60583;50.094;8.748;2022-07-03T00:33:01;100622.00;;;18.88;61.21
72558;BME280;60583;50.094;8.748;2022-07-03T00:35:28;100630.69;;;18.90;60.95
72558;BME280;60583;50.094;8.748;2022-07-03T00:37:55;100627.25;;;18.95;61.24
72558;BME280;60583;50.094;8.748;2022-07-03T00:40:21;100617.19;;;18.90;61.53
72558;BME280;60583;50.094;8.748;2022-07-03T00:42:49;100616.50;;;18.83;61.83
72558;BME280;60583;50.094;8.748;2022-07-03T00:45:15;100612.34;;;18.76;61.83
72558;BME280;60583;50.094;8.748;2022-07-03T00:47:44;100609.56;;;18.71;62.05
72558;BME280;60583;50.094;8.748;2022-07-03T00:50:09;100604.41;;;18.69;61.92
72558;BME280;60583;50.094;8.748;2022-07-03T00:52:36;100606.28;;;18.69;61.75
72558;BME280;60583;50.094;8.748;2022-07-03T00:55:07;100605.38;;;18.63;61.81
72558;BME280;60583;50.094;8.748;2022-07-03T00:57:34;100608.69;;;18.65;61.78
72558;BME280;60583;50.094;8.748;2022-07-03T01:00:01;100604.88;;;18.66;61.95
72558;BME280;60583;50.094;8.748;2022-07-03T01:05:30;100608.34;;;18.62;62.67
72558;BME280;60583;50.094;8.748;2022-07-03T01:08:19;100607.38;;;18.68;62.82
72558;BME280;60583;50.094;8.748;2022-07-03T01:10:58;100605.47;;;18.68;62.88
72558;BME280;60583;50.094;8.748;2022-07-03T01:18:45;100605.81;;;18.55;63.58
72558;BME280;60583;50.094;8.748;2022-07-03T01:24:17;100616.00;;;18.53;63.49
72558;BME280;60583;50.094;8.748;2022-07-03T01:26:57;100608.91;;;18.47;64.12
72558;BME280;60583;50.094;8.748;2022-07-03T01:30:02;100607.72;;;18.43;64.03
72558;BME280;60583;50.094;8.748;2022-07-03T01:32:32;100608.72;;;18.37;63.84
72558;BME280;60583;50.094;8.748;2022-07-03T01:35:00;100602.00;;;18.39;63.65
72558;BME280;60583;50.094;8.748;2022-07-03T01:37:30;100610.25;;;18.33;63.63
72558;BME280;60583;50.094;8.748;2022-07-03T01:39:57;100613.53;;;18.35;63.83
72558;BME280;60583;50.094;8.748;2022-07-03T01:42:24;100614.59;;;18.34;63.89
72558;BME280;60583;50.094;8.748;2022-07-03T01:44:52;100612.63;;;18.29;64.22
72558;BME280;60583;50.094;8.748;2022-07-03T01:47:18;100603.13;;;18.27;64.33
72558;BME280;60583;50.094;8.748;2022-07-03T01:49:44;100610.31;;;18.21;64.73
72558;BME280;60583;50.094;8.748;2022-07-03T01:52:13;100609.41;;;18.16;64.86
72558;BME280;60583;50.094;8.748;2022-07-03T01:54:41;100600.63;;;18.09;65.09
72558;BME280;60583;50.094;8.748;2022-07-03T01:57:07;100596.69;;;18.00;65.46
72558;BME280;60583;50.094;8.748;2022-07-03T01:59:33;100595.34;;;17.85;65.94
72558;BME280;60583;50.094;8.748;2022-07-03T02:02:09;100600.63;;;17.80;66.05
72558;BME280;60583;50.094;8.748;2022-07-03T02:07:24;100581.56;;;17.70;66.21
72558;BME280;60583;50.094;8.748;2022-07-03T02:10:03;100579.94;;;17.69;66.26
72558;BME280;60583;50.094;8.748;2022-07-03T02:12:47;100579.84;;;17.64;66.60
72558;BME280;60583;50.094;8.748;2022-07-03T02:15:17;100577.03;;;17.59;66.55
72558;BME280;60583;50.094;8.748;2022-07-03T02:17:45;100575.97;;;17.60;66.71
72558;BME280;60583;50.094;8.748;2022-07-03T02:20:13;100564.75;;;17.40;67.35
72558;BME280;60583;50.094;8.748;2022-07-03T02:22:41;100568.03;;;17.54;66.53
72558;BME280;60583;50.094;8.748;2022-07-03T02:28:05;100571.41;;;17.49;66.64
72558;BME280;60583;50.094;8.748;2022-07-03T02:30:35;100568.25;;;17.52;66.41
72558;BME280;60583;50.094;8.748;2022-07-03T02:33:01;100582.56;;;17.41;66.88
72558;BME280;60583;50.094;8.748;2022-07-03T02:35:31;100583.88;;;17.27;67.55
72558;BME280;60583;50.094;8.748;2022-07-03T02:38:15;100577.44;;;17.28;67.64
72558;BME280;60583;50.094;8.748;2022-07-03T02:41:20;100578.50;;;17.15;68.02
72558;BME280;60583;50.094;8.748;2022-07-03T02:46:17;100580.16;;;17.16;68.04
72558;BME280;60583;50.094;8.748;2022-07-03T02:49:16;100591.63;;;17.12;68.22
72558;BME280;60583;50.094;8.748;2022-07-03T02:51:49;100595.03;;;17.19;68.27
72558;BME280;60583;50.094;8.748;2022-07-03T02:54:17;100598.06;;;17.34;67.95
72558;BME280;60583;50.094;8.748;2022-07-03T02:56:56;100597.78;;;17.47;67.81
72558;BME280;60583;50.094;8.748;2022-07-03T02:59:43;100595.22;;;17.52;67.53
72558;BME280;60583;50.094;8.748;2022-07-03T03:02:25;100598.22;;;17.67;66.79
72558;BME280;60583;50.094;8.748;2022-07-03T03:05:25;100597.84;;;17.75;66.62
72558;BME280;60583;50.094;8.748;2022-07-03T03:10:46;100600.06;;;17.78;66.43
72558;BME280;60583;50.094;8.748;2022-07-03T03:13:14;100603.50;;;17.74;66.24
72558;BME280;60583;50.094;8.748;2022-07-03T03:15:56;100607.97;;;17.68;66.76
72558;BME280;60583;50.094;8.748;2022-07-03T03:18:27;100603.13;;;17.70;66.44
72558;BME280;60583;50.094;8.748;2022-07-03T03:20:55;100608.09;;;17.62;66.57
72558;BME280;60583;50.094;8.748;2022-07-03T03:23:43;100599.88;;;17.68;66.21
72558;BME280;60583;50.094;8.748;2022-07-03T03:26:12;100607.47;;;17.71;66.76
72558;BME280;60583;50.094;8.748;2022-07-03T03:28:39;100607.97;;;17.68;66.84
72558;BME280;60583;50.094;8.748;2022-07-03T03:31:06;100605.72;;;17.65;67.14
72558;BME280;60583;50.094;8.748;2022-07-03T03:33:38;100606.22;;;17.62;67.12
72558;BME280;60583;50.094;8.748;2022-07-03T03:36:05;100606.94;;;17.58;67.31
72558;BME280;60583;50.094;8.748;2022-07-03T03:38:32;100613.94;;;17.47;67.59
72558;BME280;60583;50.094;8.748;2022-07-03T03:40:57;100609.06;;;17.44;67.50
72558;BME280;60583;50.094;8.748;2022-07-03T03:43:23;100614.78;;;17.48;67.98
72558;BME280;60583;50.094;8.748;2022-07-03T03:45:48;100610.47;;;17.47;68.06
72558;BME280;60583;50.094;8.748;2022-07-03T03:48:14;100614.91;;;17.41;67.97
72558;BME280;60583;50.094;8.748;2022-07-03T03:50:39;100618.09;;;17.38;68.07
72558;BME280;60583;50.094;8.748;2022-07-03T03:53:08;100604.97;;;17.30;68.38
72558;BME280;60583;50.094;8.748;2022-07-03T03:55:33;100627.00;;;17.39;68.50
72558;BME280;60583;50.094;8.748;2022-07-03T03:57:58;100614.25;;;17.34;68.34
72558;BME280;60583;50.094;8.748;2022-07-03T04:00:26;100625.03;;;17.34;68.34
72558;BME280;60583;50.094;8.748;2022-07-03T04:02:51;100630.28;;;17.41;68.46
72558;BME280;60583;50.094;8.748;2022-07-03T04:05:17;100625.69;;;17.41;68.21
72558;BME280;60583;50.094;8.748;2022-07-03T04:07:42;100624.06;;;17.40;68.53
72558;BME280;60583;50.094;8.748;2022-07-03T04:10:08;100623.22;;;17.51;68.32
72558;BME280;60583;50.094;8.748;2022-07-03T04:12:33;100635.44;;;17.54;68.34
72558;BME280;60583;50.094;8.748;2022-07-03T04:14:58;100635.28;;;17.60;68.07
72558;BME280;60583;50.094;8.748;2022-07-03T04:17:24;100634.72;;;17.58;67.96
72558;BME280;60583;50.094;8.748;2022-07-03T04:19:49;100638.56;;;17.62;68.00
72558;BME280;60583;50.094;8.748;2022-07-03T04:22:14;100637.28;;;17.65;68.14
72558;BME280;60583;50.094;8.748;2022-07-03T04:24:40;100636.91;;;17.73;67.46
72558;BME280;60583;50.094;8.748;2022-07-03T04:27:05;100640.44;;;17.73;67.81
72558;BME280;60583;50.094;8.748;2022-07-03T04:29:30;100636.34;;;17.71;67.44
72558;BME280;60583;50.094;8.748;2022-07-03T04:31:56;100635.38;;;17.77;67.39
72558;BME280;60583;50.094;8.748;2022-07-03T04:34:21;100643.34;;;17.83;67.47
72558;BME280;60583;50.094;8.748;2022-07-03T04:36:46;100640.06;;;17.81;67.52
72558;BME280;60583;50.094;8.748;2022-07-03T04:39:12;100649.09;;;17.75;67.18
72558;BME280;60583;50.094;8.748;2022-07-03T04:41:37;100650.97;;;17.87;66.81
72558;BME280;60583;50.094;8.748;2022-07-03T04:44:03;100640.16;;;17.87;66.69
72558;BME280;60583;50.094;8.748;2022-07-03T04:46:28;100650.47;;;17.90;66.97
72558;BME280;60583;50.094;8.748;2022-07-03T04:48:53;100646.22;;;17.94;66.98
72558;BME280;60583;50.094;8.748;2022-07-03T04:51:19;100645.84;;;18.02;66.66
72558;BME280;60583;50.094;8.748;2022-07-03T04:53:44;100650.97;;;18.15;66.74
72558;BME280;60583;50.094;8.748;2022-07-03T04:56:09;100646.81;;;18.24;66.40
72558;BME280;60583;50.094;8.748;2022-07-03T04:58:35;100656.66;;;18.30;65.47
72558;BME280;60583;50.094;8.748;2022-07-03T05:01:00;100654.63;;;18.37;64.57
72558;BME280;60583;50.094;8.748;2022-07-03T05:03:26;100647.44;;;18.42;64.07
72558;BME280;60583;50.094;8.748;2022-07-03T05:05:52;100655.84;;;18.46;64.54
72558;BME280;60583;50.094;8.748;2022-07-03T05:08:18;100648.50;;;18.58;63.74
72558;BME280;60583;50.094;8.748;2022-07-03T05:10:45;100646.59;;;18.70;63.16
72558;BME280;60583;50.094;8.748;2022-07-03T05:13:10;100647.22;;;18.77;63.48
72558;BME280;60583;50.094;8.748;2022-07-03T05:15:36;100639.94;;;18.78;62.65
72558;BME280;60583;50.094;8.748;2022-07-03T05:18:01;100643.03;;;18.86;62.13
72558;BME280;60583;50.094;8.748;2022-07-03T05:20:27;100645.94;;;18.80;62.28
72558;BME280;60583;50.094;8.748;2022-07-03T05:22:59;100647.97;;;18.89;61.88
72558;BME280;60583;50.094;8.748;2022-07-03T05:25:25;100653.09;;;18.91;61.83
72558;BME280;60583;50.094;8.748;2022-07-03T05:27:51;100649.09;;;18.93;61.75
72558;BME280;60583;50.094;8.748;2022-07-03T05:30:18;100657.28;;;19.15;61.42
72558;BME280;60583;50.094;8.748;2022-07-03T05:32:44;100654.41;;;19.22;61.31
72558;BME280;60583;50.094;8.748;2022-07-03T05:35:09;100653.78;;;19.36;61.30
72558;BME280;60583;50.094;8.748;2022-07-03T05:37:35;100653.78;;;19.53;61.19
72558;BME280;60583;50.094;8.748;2022-07-03T05:40:00;100662.94;;;19.68;61.65
72558;BME280;60583;50.094;8.748;2022-07-03T05:42:26;100662.28;;;19.83;61.02
72558;BME280;60583;50.094;8.748;2022-07-03T05:44:51;100660.22;;;19.90;60.61
72558;BME280;60583;50.094;8.748;2022-07-03T05:47:16;100654.34;;;19.98;60.73
72558;BME280;60583;50.094;8.748;2022-07-03T05:49:42;100670.22;;;20.11;60.84
72558;BME280;60583;50.094;8.748;2022-07-03T05:52:07;100666.53;;;20.22;59.88
72558;BME280;60583;50.094;8.748;2022-07-03T05:54:32;100654.72;;;20.28;59.44
72558;BME280;60583;50.094;8.748;2022-07-03T05:56:58;100669.09;;;20.61;59.35
72558;BME280;60583;50.094;8.748;2022-07-03T05:59:23;100666.09;;;20.57;58.51
72558;BME280;60583;50.094;8.748;2022-07-03T06:01:49;100665.41;;;20.72;58.41
72558;BME280;60583;50.094;8.748;2022-07-03T06:04:14;100652.19;;;20.80;57.96
72558;BME280;60583;50.094;8.748;2022-07-03T06:06:39;100665.41;;;21.04;57.37
72558;BME280;60583;50.094;8.748;2022-07-03T06:09:05;100659.16;;;21.03;56.88
72558;BME280;60583;50.094;8.748;2022-07-03T06:11:30;100663.47;;;20.99;56.39
72558;BME280;60583;50.094;8.748;2022-07-03T06:13:55;100670.88;;;21.09;56.49
72558;BME280;60583;50.094;8.748;2022-07-03T06:16:21;100664.03;;;21.01;56.38
72558;BME280;60583;50.094;8.748;2022-07-03T06:18:46;100662.03;;;21.23;56.09
72558;BME280;60583;50.094;8.748;2022-07-03T06:21:12;100664.84;;;21.38;55.44
72558;BME280;60583;50.094;8.748;2022-07-03T06:23:37;100662.13;;;21.38;55.62
72558;BME280;60583;50.094;8.748;2022-07-03T06:26:02;100661.94;;;21.55;55.17
72558;BME280;60583;50.094;8.748;2022-07-03T06:28:28;100666.09;;;21.73;54.25
72558;BME280;60583;50.094;8.748;2022-07-03T06:30:53;100664.47;;;21.72;55.08
72558;BME280;60583;50.094;8.748;2022-07-03T06:33:19;100652.22;;;21.64;54.63
72558;BME280;60583;50.094;8.748;2022-07-03T06:35:44;100663.94;;;21.75;54.23
72558;BME280;60583;50.094;8.748;2022-07-03T06:38:10;100663.75;;;21.91;54.37
72558;BME280;60583;50.094;8.748;2022-07-03T06:40:35;100669.50;;;22.00;53.77
72558;BME280;60583;50.094;8.748;2022-07-03T06:43:01;100680.06;;;21.91;53.43
72558;BME280;60583;50.094;8.748;2022-07-03T06:45:26;100667.16;;;21.67;53.84
72558;BME280;60583;50.094;8.748;2022-07-03T06:47:51;100661.69;;;21.56;54.25
72558;BME280;60583;50.094;8.748;2022-07-03T06:50:17;100661.75;;;21.72;53.86
72558;BME280;60583;50.094;8.748;2022-07-03T06:52:42;100659.91;;;21.82;53.89
72558;BME280;60583;50.094;8.748;2022-07-03T06:55:07;100661.06;;;22.01;53.88
72558;BME280;60583;50.094;8.748;2022-07-03T06:57:33;100660.81;;;22.13;53.59
72558;BME280;60583;50.094;8.748;2022-07-03T06:59:58;100654.88;;;22.31;52.47
72558;BME280;60583;50.094;8.748;2022-07-03T07:02:23;100657.63;;;22.51;51.63
72558;BME280;60583;50.094;8.748;2022-07-03T07:04:49;100660.38;;;22.56;51.04
72558;BME280;60583;50.094;8.748;2022-07-03T07:07:14;100653.88;;;22.67;50.79
72558;BME280;60583;50.094;8.748;2022-07-03T07:09:39;100665.84;;;22.76;50.71
72558;BME280;60583;50.094;8.748;2022-07-03T07:12:05;100662.03;;;22.93;50.30
72558;BME280;60583;50.094;8.748;2022-07-03T07:14:31;100653.59;;;23.09;50.34
72558;BME280;60583;50.094;8.748;2022-07-03T07:16:56;100660.13;;;23.18;49.71
72558;BME280;60583;50.094;8.748;2022-07-03T07:19:21;100666.63;;;23.27;49.73
72558;BME280;60583;50.094;8.748;2022-07-03T07:21:47;100662.84;;;23.18;49.42
72558;BME280;60583;50.094;8.748;2022-07-03T07:24:12;100660.69;;;22.95;49.70
72558;BME280;60583;50.094;8.748;2022-07-03T07:26:38;100660.88;;;23.34;50.04
72558;BME280;60583;50.094;8.748;2022-07-03T07:29:03;100661.44;;;23.51;49.51
72558;BME280;60583;50.094;8.748;2022-07-03T07:31:28;100659.16;;;23.73;48.76
72558;BME280;60583;50.094;8.748;2022-07-03T07:33:54;100662.88;;;23.92;48.33
72558;BME280;60583;50.094;8.748;2022-07-03T07:36:19;100660.41;;;24.01;48.52
72558;BME280;60583;50.094;8.748;2022-07-03T07:38:44;100673.28;;;23.85;48.26
72558;BME280;60583;50.094;8.748;2022-07-03T07:41:10;100659.09;;;23.93;48.26
72558;BME280;60583;50.094;8.748;2022-07-03T07:43:35;100661.47;;;24.10;47.60
72558;BME280;60583;50.094;8.748;2022-07-03T07:46:00;100672.84;;;24.22;47.31
72558;BME280;60583;50.094;8.748;2022-07-03T07:48:25;100672.53;;;24.29;47.12
72558;BME280;60583;50.094;8.748;2022-07-03T07:50:51;100664.31;;;24.39;47.16
72558;BME280;60583;50.094;8.748;2022-07-03T07:53:17;100669.50;;;24.35;47.15
72558;BME280;60583;50.094;8.748;2022-07-03T07:55:43;100667.25;;;24.42;47.53
72558;BME280;60583;50.094;8.748;2022-07-03T07:58:08;100669.66;;;24.54;46.48
72558;BME280;60583;50.094;8.748;2022-07-03T08:00:34;100672.34;;;24.59;46.00
72558;BME280;60583;50.094;8.748;2022-07-03T08:03:00;100667.22;;;24.47;45.85
72558;BME280;60583;50.094;8.748;2022-07-03T08:05:54;100671.81;;;24.57;46.40
72558;BME280;60583;50.094;8.748;2022-07-03T08:08:20;100665.16;;;24.68;46.67
72558;BME280;60583;50.094;8.748;2022-07-03T08:10:47;100663.41;;;24.87;45.78
72558;BME280;60583;50.094;8.748;2022-07-03T08:13:14;100654.41;;;25.15;45.48
72558;BME280;60583;50.094;8.748;2022-07-03T08:15:41;100661.88;;;25.33;45.22
72558;BME280;60583;50.094;8.748;2022-07-03T08:18:08;100654.66;;;25.48;44.97
72558;BME280;60583;50.094;8.748;2022-07-03T08:20:34;100659.94;;;25.63;45.21
72558;BME280;60583;50.094;8.748;2022-07-03T08:22:59;100663.91;;;25.75;44.41
72558;BME280;60583;50.094;8.748;2022-07-03T08:25:25;100664.00;;;25.65;43.49
72558;BME280;60583;50.094;8.748;2022-07-03T08:27:51;100657.94;;;25.68;44.08
72558;BME280;60583;50.094;8.748;2022-07-03T08:30:16;100659.81;;;25.73;43.03
72558;BME280;60583;50.094;8.748;2022-07-03T08:32:50;100646.00;;;25.83;42.79
72558;BME280;60583;50.094;8.748;2022-07-03T08:35:16;100651.25;;;25.98;42.79
72558;BME280;60583;50.094;8.748;2022-07-03T08:37:42;100646.16;;;26.15;43.40
72558;BME280;60583;50.094;8.748;2022-07-03T08:40:13;100640.25;;;26.45;42.96
72558;BME280;60583;50.094;8.748;2022-07-03T08:42:41;100654.66;;;26.14;41.49
72558;BME280;60583;50.094;8.748;2022-07-03T08:45:08;100645.72;;;26.03;42.39
72558;BME280;60583;50.094;8.748;2022-07-03T08:47:38;100648.47;;;26.03;42.15
72558;BME280;60583;50.094;8.748;2022-07-03T08:50:05;100648.16;;;25.86;41.28
72558;BME280;60583;50.094;8.748;2022-07-03T08:52:33;100647.81;;;25.92;41.80
72558;BME280;60583;50.094;8.748;2022-07-03T08:54:58;100647.44;;;25.99;41.85
72558;BME280;60583;50.094;8.748;2022-07-03T08:57:24;100639.47;;;26.03;40.02
72558;BME280;60583;50.094;8.748;2022-07-03T08:59:52;100642.03;;;26.18;39.96
72558;BME280;60583;50.094;8.748;2022-07-03T09:02:18;100649.91;;;26.56;39.98
72558;BME280;60583;50.094;8.748;2022-07-03T09:04:44;100645.22;;;26.76;39.58
72558;BME280;60583;50.094;8.748;2022-07-03T09:07:10;100640.13;;;27.01;39.85
72558;BME280;60583;50.094;8.748;2022-07-03T09:09:37;100640.22;;;26.96;39.08
72558;BME280;60583;50.094;8.748;2022-07-03T09:12:04;100642.94;;;26.96;39.00
72558;BME280;60583;50.094;8.748;2022-07-03T09:14:30;100637.59;;;27.05;40.00
72558;BME280;60583;50.094;8.748;2022-07-03T09:16:55;100639.25;;;27.06;38.78
72558;BME280;60583;50.094;8.748;2022-07-03T09:19:40;100644.72;;;27.06;39.06
72558;BME280;60583;50.094;8.748;2022-07-03T09:22:25;100637.75;;;27.27;38.49
72558;BME280;60583;50.094;8.748;2022-07-03T09:25:12;100645.13;;;27.13;38.73
72558;BME280;60583;50.094;8.748;2022-07-03T09:27:49;100640.97;;;27.29;38.72
72558;BME280;60583;50.094;8.748;2022-07-03T09:30:15;100646.16;;;27.17;37.56
72558;BME280;60583;50.094;8.748;2022-07-03T09:32:42;100632.66;;;27.34;38.54
72558;BME280;60583;50.094;8.748;2022-07-03T09:37:48;100635.03;;;27.81;37.22
72558;BME280;60583;50.094;8.748;2022-07-03T09:40:13;100638.97;;;28.03;36.62
72558;BME280;60583;50.094;8.748;2022-07-03T09:42:38;100631.72;;;28.20;35.59
72558;BME280;60583;50.094;8.748;2022-07-03T09:45:04;100634.78;;;28.19;35.01
72558;BME280;60583;50.094;8.748;2022-07-03T09:47:30;100631.44;;;27.95;35.50
72558;BME280;60583;50.094;8.748;2022-07-03T09:49:57;100633.13;;;28.18;35.13
72558;BME280;60583;50.094;8.748;2022-07-03T09:52:35;100631.06;;;28.37;33.93
72558;BME280;60583;50.094;8.748;2022-07-03T10:00:20;100619.09;;;29.30;33.20
72558;BME280;60583;50.094;8.748;2022-07-03T10:05:37;100617.59;;;29.24;31.48
72558;BME280;60583;50.094;8.748;2022-07-03T10:08:06;100619.25;;;28.72;31.23
72558;BME280;60583;50.094;8.748;2022-07-03T10:10:34;100617.91;;;28.92;31.12
72558;BME280;60583;50.094;8.748;2022-07-03T10:13:01;100609.69;;;29.23;31.43
72558;BME280;60583;50.094;8.748;2022-07-03T10:15:29;100619.59;;;29.41;30.91
72558;BME280;60583;50.094;8.748;2022-07-03T10:17:56;100615.19;;;29.23;31.18
72558;BME280;60583;50.094;8.748;2022-07-03T10:20:30;100615.19;;;29.70;31.55
72558;BME280;60583;50.094;8.748;2022-07-03T10:22:56;100611.38;;;30.06;30.71
72558;BME280;60583;50.094;8.748;2022-07-03T10:25:21;100614.59;;;30.16;30.14
72558;BME280;60583;50.094;8.748;2022-07-03T10:27:48;100607.50;;;30.15;29.74
72558;BME280;60583;50.094;8.748;2022-07-03T10:30:23;100602.91;;;30.79;29.16
72558;BME280;60583;50.094;8.748;2022-07-03T10:32:53;100615.75;;;30.32;29.59
72558;BME280;60583;50.094;8.748;2022-07-03T10:35:37;100600.19;;;30.71;28.92
72558;BME280;60583;50.094;8.748;2022-07-03T10:43:34;100605.47;;;29.73;28.59
72558;BME280;60583;50.094;8.748;2022-07-03T10:46:22;100611.53;;;30.26;29.16
72558;BME280;60583;50.094;8.748;2022-07-03T10:49:11;100611.38;;;30.66;28.51
72558;BME280;60583;50.094;8.748;2022-07-03T10:59:23;100613.47;;;30.52;28.52
72558;BME280;60583;50.094;8.748;2022-07-03T11:02:19;100606.94;;;30.82;27.57
72558;BME280;60583;50.094;8.748;2022-07-03T11:07:29;100613.72;;;31.39;26.55
72558;BME280;60583;50.094;8.748;2022-07-03T11:15:36;100588.63;;;31.91;26.36
72558;BME280;60583;50.094;8.748;2022-07-03T11:21:42;100592.06;;;32.50;24.74
72558;BME280;60583;50.094;8.748;2022-07-03T11:24:00;100584.72;;;32.54;25.40
72558;BME280;60583;50.094;8.748;2022-07-03T11:26:27;100571.72;;;32.99;25.41
72558;BME280;60583;50.094;8.748;2022-07-03T11:28:53;100566.31;;;33.51;25.26
72558;BME280;60583;50.094;8.748;2022-07-03T11:31:20;100561.97;;;33.38;23.21
72558;BME280;60583;50.094;8.748;2022-07-03T11:41:23;100571.56;;;32.18;24.81
72558;BME280;60583;50.094;8.748;2022-07-03T11:43:49;100563.47;;;32.13;24.71
72558;BME280;60583;50.094;8.748;2022-07-03T11:46:22;100565.50;;;32.04;25.73
72558;BME280;60583;50.094;8.748;2022-07-03T11:48:47;100557.94;;;32.34;24.42
72558;BME280;60583;50.094;8.748;2022-07-03T11:51:14;100557.44;;;32.97;24.24
72558;BME280;60583;50.094;8.748;2022-07-03T11:53:39;100548.41;;;32.76;25.22
72558;BME280;60583;50.094;8.748;2022-07-03T11:56:06;100544.81;;;32.63;25.59
72558;BME280;60583;50.094;8.748;2022-07-03T11:58:46;100538.31;;;32.47;25.96
72558;BME280;60583;50.094;8.748;2022-07-03T12:03:46;100543.53;;;32.61;26.06
72558;BME280;60583;50.094;8.748;2022-07-03T12:06:12;100541.19;;;32.51;26.06
72558;BME280;60583;50.094;8.748;2022-07-03T12:08:37;100537.59;;;32.83;25.10
72558;BME280;60583;50.094;8.748;2022-07-03T12:11:09;100540.91;;;32.64;25.19
72558;BME280;60583;50.094;8.748;2022-07-03T12:13:35;100544.00;;;33.08;24.66
72558;BME280;60583;50.094;8.748;2022-07-03T12:16:05;100525.16;;;32.32;24.97
72558;BME280;60583;50.094;8.748;2022-07-03T12:18:48;100530.00;;;31.52;25.51
72558;BME280;60583;50.094;8.748;2022-07-03T12:21:14;100534.66;;;31.61;25.51
72558;BME280;60583;50.094;8.748;2022-07-03T12:23:54;100514.63;;;31.43;26.83
72558;BME280;60583;50.094;8.748;2022-07-03T12:26:33;100520.66;;;31.66;27.14
72558;BME280;60583;50.094;8.748;2022-07-03T12:29:04;100520.78;;;31.40;25.30
72558;BME280;60583;50.094;8.748;2022-07-03T12:31:31;100524.66;;;31.47;25.04
72558;BME280;60583;50.094;8.748;2022-07-03T12:33:57;100517.91;;;31.36;25.13
72558;BME280;60583;50.094;8.748;2022-07-03T12:36:24;100514.00;;;31.08;25.74
72558;BME280;60583;50.094;8.748;2022-07-03T12:38:51;100512.50;;;31.48;24.53
72558;BME280;60583;50.094;8.748;2022-07-03T12:41:17;100514.84;;;31.00;24.65
72558;BME280;60583;50.094;8.748;2022-07-03T12:43:46;100519.09;;;31.27;24.45
72558;BME280;60583;50.094;8.748;2022-07-03T12:46:52;100514.66;;;31.34;24.21
72558;BME280;60583;50.094;8.748;2022-07-03T12:49:12;100504.06;;;30.78;25.20
72558;BME280;60583;50.094;8.748;2022-07-03T12:51:39;100502.06;;;30.96;24.93
72558;BME280;60583;50.094;8.748;2022-07-03T12:54:09;100503.56;;;30.93;25.22
72558;BME280;60583;50.094;8.748;2022-07-03T12:56:35;100491.31;;;30.65;25.44
72558;BME280;60583;50.094;8.748;2022-07-03T12:59:00;100503.97;;;30.57;25.48
72558;BME280;60583;50.094;8.748;2022-07-03T13:02:04;100500.81;;;29.87;26.26
72558;BME280;60583;50.094;8.748;2022-07-03T13:04:35;100483.53;;;29.78;26.87
72558;BME280;60583;50.094;8.748;2022-07-03T13:07:06;100479.91;;;30.11;26.32
72558;BME280;60583;50.094;8.748;2022-07-03T13:09:35;100481.56;;;30.12;25.95
72558;BME280;60583;50.094;8.748;2022-07-03T13:12:01;100497.88;;;30.17;25.76
72558;BME280;60583;50.094;8.748;2022-07-03T13:14:27;100490.41;;;30.26;26.03
72558;BME280;60583;50.094;8.748;2022-07-03T13:16:54;100493.03;;;30.23;25.29
72558;BME280;60583;50.094;8.748;2022-07-03T13:19:25;100484.78;;;30.23;25.64
72558;BME280;60583;50.094;8.748;2022-07-03T13:21:53;100472.16;;;30.13;25.46
72558;BME280;60583;50.094;8.748;2022-07-03T13:24:19;100485.59;;;30.23;25.99
72558;BME280;60583;50.094;8.748;2022-07-03T13:26:46;100468.91;;;30.20;25.40
72558;BME280;60583;50.094;8.748;2022-07-03T13:29:11;100466.97;;;30.12;25.83
72558;BME280;60583;50.094;8.748;2022-07-03T13:31:37;100480.91;;;30.07;26.28
72558;BME280;60583;50.094;8.748;2022-07-03T13:34:02;100476.03;;;30.12;26.89
72558;BME280;60583;50.094;8.748;2022-07-03T13:36:29;100477.63;;;30.22;27.17
72558;BME280;60583;50.094;8.748;2022-07-03T13:38:55;100484.91;;;30.26;26.97
72558;BME280;60583;50.094;8.748;2022-07-03T13:41:21;100470.19;;;30.14;26.04
72558;BME280;60583;50.094;8.748;2022-07-03T13:43:50;100475.91;;;30.00;26.24
72558;BME280;60583;50.094;8.748;2022-07-03T13:46:19;100478.19;;;29.98;26.56
72558;BME280;60583;50.094;8.748;2022-07-03T13:48:50;100466.03;;;29.82;26.58
72558;BME280;60583;50.094;8.748;2022-07-03T13:51:15;100465.72;;;29.92;26.64
72558;BME280;60583;50.094;8.748;2022-07-03T13:53:40;100458.06;;;30.06;26.82
72558;BME280;60583;50.094;8.748;2022-07-03T13:56:06;100460.00;;;30.14;26.46
72558;BME280;60583;50.094;8.748;2022-07-03T13:58:31;100458.41;;;30.13;26.83
72558;BME280;60583;50.094;8.748;2022-07-03T14:00:57;100467.75;;;30.29;26.83
72558;BME280;60583;50.094;8.748;2022-07-03T14:03:22;100455.75;;;30.43;26.34
72558;BME280;60583;50.094;8.748;2022-07-03T14:05:48;100461.13;;;30.30;26.47